sensor_id;sensor_type;location;lat;lon;timestamp;P1;durP1;ratioP1;P2;durP2;ratioP2
5333;SDS011;2689;50.954;7.116;2024-03-06T00:01:53;41.50;;;24.20;;
5333;SDS011;2689;50.954;7.116;2024-03-06T00:04:19;38.00;;;24.20;;
5333;SDS011;2689;50.954;7.116;2024-03-06T00:06:46;40.67;;;24.03;;
5333;SDS011;2689;50.954;7.116;2024-03-06T00:09:16;38.20;;;24.43;;
5333;SDS011;2689;50.954;7.116;2024-03-06T00:11:43;34.00;;;23.83;;
5333;SDS011;2689;50.954;7.116;2024-03-06T00:14:10;37.37;;;23.70;;
5333;SDS011;2689;50.954;7.116;2024-03-06T00:16:46;36.30;;;24.27;;
5333;SDS011;2689;50.954;7.116;2024-03-06T00:19:16;37.47;;;24.57;;
5333;SDS011;2689;50.954;7.116;2024-03-06T00:21:43;38.77;;;24.93;;
5333;SDS011;2689;50.954;7.116;2024-03-06T00:24:11;35.53;;;22.37;;
5333;SDS011;2689;50.954;7.116;2024-03-06T00:26:39;37.77;;;25.00;;
5333;SDS011;2689;50.954;7.116;2024-03-06T00:29:05;35.70;;;24.70;;
5333;SDS011;2689;50.954;7.116;2024-03-06T00:31:33;37.03;;;24.40;;
5333;SDS011;2689;50.954;7.116;2024-03-06T00:33:59;34.13;;;23.30;;
5333;SDS011;2689;50.954;7.116;2024-03-06T00:36:28;36.33;;;25.30;;
5333;SDS011;2689;50.954;7.116;2024-03-06T00:38:54;34.30;;;22.83;;
5333;SDS011;2689;50.954;7.116;2024-03-06T00:41:21;40.70;;;24.67;;
5333;SDS011;2689;50.954;7.116;2024-03-06T00:43:48;38.63;;;24.17;;
5333;SDS011;2689;50.954;7.116;2024-03-06T00:46:15;36.50;;;24.83;;
5333;SDS011;2689;50.954;7.116;2024-03-06T00:48:42;36.30;;;25.40;;
5333;SDS011;2689;50.954;7.116;2024-03-06T00:51:08;33.20;;;23.60;;
5333;SDS011;2689;50.954;7.116;2024-03-06T00:53:37;35.33;;;24.10;;
5333;SDS011;2689;50.954;7.116;2024-03-06T00:56:04;34.47;;;23.07;;
5333;SDS011;2689;50.954;7.116;2024-03-06T00:58:31;36.57;;;23.37;;
5333;SDS011;2689;50.954;7.116;2024-03-06T01:00:58;34.50;;;21.80;;
5333;SDS011;2689;50.954;7.116;2024-03-06T01:03:25;33.23;;;23.80;;
5333;SDS011;2689;50.954;7.116;2024-03-06T01:05:52;35.10;;;22.87;;
5333;SDS011;2689;50.954;7.116;2024-03-06T01:08:20;36.17;;;25.03;;
5333;SDS011;2689;50.954;7.116;2024-03-06T01:10:51;35.10;;;24.00;;
5333;SDS011;2689;50.954;7.116;2024-03-06T01:13:18;36.10;;;22.53;;
5333;SDS011;2689;50.954;7.116;2024-03-06T01:15:46;37.00;;;24.27;;
5333;SDS011;2689;50.954;7.116;2024-03-06T01:18:12;35.47;;;25.00;;
5333;SDS011;2689;50.954;7.116;2024-03-06T01:20:39;37.50;;;24.60;;
5333;SDS011;2689;50.954;7.116;2024-03-06T01:23:06;35.50;;;24.60;;
5333;SDS011;2689;50.954;7.116;2024-03-06T01:25:33;33.63;;;25.63;;
5333;SDS011;2689;50.954;7.116;2024-03-06T01:28:02;38.53;;;25.07;;
5333;SDS011;2689;50.954;7.116;2024-03-06T01:30:29;37.17;;;24.20;;
5333;SDS011;2689;50.954;7.116;2024-03-06T01:32:55;34.23;;;23.47;;
5333;SDS011;2689;50.954;7.116;2024-03-06T01:35:23;33.73;;;23.63;;
5333;SDS011;2689;50.954;7.116;2024-03-06T01:37:50;32.60;;;22.47;;
5333;SDS011;2689;50.954;7.116;2024-03-06T01:40:17;33.57;;;22.73;;
5333;SDS011;2689;50.954;7.116;2024-03-06T01:42:43;34.60;;;22.93;;
5333;SDS011;2689;50.954;7.116;2024-03-06T01:45:14;34.13;;;23.63;;
5333;SDS011;2689;50.954;7.116;2024-03-06T01:47:41;33.33;;;23.10;;
5333;SDS011;2689;50.954;7.116;2024-03-06T01:50:08;33.67;;;22.57;;
5333;SDS011;2689;50.954;7.116;2024-03-06T01:52:36;34.43;;;23.00;;
5333;SDS011;2689;50.954;7.116;2024-03-06T01:55:06;35.03;;;22.37;;
5333;SDS011;2689;50.954;7.116;2024-03-06T01:57:34;32.70;;;23.10;;
5333;SDS011;2689;50.954;7.116;2024-03-06T02:00:02;36.83;;;23.20;;
5333;SDS011;2689;50.954;7.116;2024-03-06T02:02:31;34.17;;;23.63;;
5333;SDS011;2689;50.954;7.116;2024-03-06T02:04:58;33.90;;;21.57;;
5333;SDS011;2689;50.954;7.116;2024-03-06T02:07:25;36.47;;;23.80;;
5333;SDS011;2689;50.954;7.116;2024-03-06T02:09:53;37.07;;;22.93;;
5333;SDS011;2689;50.954;7.116;2024-03-06T02:12:20;33.23;;;23.23;;
5333;SDS011;2689;50.954;7.116;2024-03-06T02:14:47;37.57;;;22.47;;
5333;SDS011;2689;50.954;7.116;2024-03-06T02:17:14;34.37;;;22.50;;
5333;SDS011;2689;50.954;7.116;2024-03-06T02:19:43;35.40;;;22.33;;
5333;SDS011;2689;50.954;7.116;2024-03-06T02:22:12;31.83;;;21.73;;
5333;SDS011;2689;50.954;7.116;2024-03-06T02:24:42;34.40;;;23.00;;
5333;SDS011;2689;50.954;7.116;2024-03-06T02:27:11;40.00;;;25.83;;
5333;SDS011;2689;50.954;7.116;2024-03-06T02:29:37;35.43;;;22.33;;
5333;SDS011;2689;50.954;7.116;2024-03-06T02:32:04;34.77;;;22.40;;
5333;SDS011;2689;50.954;7.116;2024-03-06T02:34:31;37.77;;;22.50;;
5333;SDS011;2689;50.954;7.116;2024-03-06T02:36:58;35.17;;;23.53;;
5333;SDS011;2689;50.954;7.116;2024-03-06T02:39:26;34.80;;;23.83;;
5333;SDS011;2689;50.954;7.116;2024-03-06T02:41:53;35.50;;;23.80;;
5333;SDS011;2689;50.954;7.116;2024-03-06T02:44:20;32.43;;;22.90;;
5333;SDS011;2689;50.954;7.116;2024-03-06T02:46:47;33.40;;;22.13;;
5333;SDS011;2689;50.954;7.116;2024-03-06T02:49:14;33.03;;;23.73;;
5333;SDS011;2689;50.954;7.116;2024-03-06T02:51:42;32.60;;;24.00;;
5333;SDS011;2689;50.954;7.116;2024-03-06T02:54:09;38.50;;;23.30;;
5333;SDS011;2689;50.954;7.116;2024-03-06T02:56:37;34.83;;;23.70;;
5333;SDS011;2689;50.954;7.116;2024-03-06T02:59:04;31.90;;;21.97;;
5333;SDS011;2689;50.954;7.116;2024-03-06T03:01:31;34.67;;;24.27;;
5333;SDS011;2689;50.954;7.116;2024-03-06T03:03:59;33.70;;;22.60;;
5333;SDS011;2689;50.954;7.116;2024-03-06T03:06:27;38.20;;;22.70;;
5333;SDS011;2689;50.954;7.116;2024-03-06T03:08:54;35.70;;;22.63;;
5333;SDS011;2689;50.954;7.116;2024-03-06T03:11:22;34.40;;;23.83;;
5333;SDS011;2689;50.954;7.116;2024-03-06T03:13:50;34.23;;;24.20;;
5333;SDS011;2689;50.954;7.116;2024-03-06T03:16:17;35.77;;;23.23;;
5333;SDS011;2689;50.954;7.116;2024-03-06T03:18:45;32.33;;;22.57;;
5333;SDS011;2689;50.954;7.116;2024-03-06T03:21:12;35.87;;;23.20;;
5333;SDS011;2689;50.954;7.116;2024-03-06T03:23:39;34.50;;;22.93;;
5333;SDS011;2689;50.954;7.116;2024-03-06T03:26:06;36.47;;;21.90;;
5333;SDS011;2689;50.954;7.116;2024-03-06T03:28:37;32.93;;;22.70;;
5333;SDS011;2689;50.954;7.116;2024-03-06T03:31:05;31.33;;;21.37;;
5333;SDS011;2689;50.954;7.116;2024-03-06T03:33:33;33.30;;;23.63;;
5333;SDS011;2689;50.954;7.116;2024-03-06T03:36:03;33.07;;;22.87;;
5333;SDS011;2689;50.954;7.116;2024-03-06T03:38:30;31.37;;;21.07;;
5333;SDS011;2689;50.954;7.116;2024-03-06T03:40:57;33.50;;;22.33;;
5333;SDS011;2689;50.954;7.116;2024-03-06T03:43:24;34.27;;;22.30;;
5333;SDS011;2689;50.954;7.116;2024-03-06T03:45:50;32.73;;;21.70;;
5333;SDS011;2689;50.954;7.116;2024-03-06T03:48:19;31.93;;;23.20;;
5333;SDS011;2689;50.954;7.116;2024-03-06T03:50:45;31.53;;;21.53;;
5333;SDS011;2689;50.954;7.116;2024-03-06T03:53:12;29.10;;;20.87;;
5333;SDS011;2689;50.954;7.116;2024-03-06T03:55:39;34.17;;;21.00;;
5333;SDS011;2689;50.954;7.116;2024-03-06T03:58:06;34.43;;;21.10;;
5333;SDS011;2689;50.954;7.116;2024-03-06T04:00:33;29.47;;;20.93;;
5333;SDS011;2689;50.954;7.116;2024-03-06T04:02:59;36.70;;;22.23;;
5333;SDS011;2689;50.954;7.116;2024-03-06T04:05:28;29.20;;;19.40;;
5333;SDS011;2689;50.954;7.116;2024-03-06T04:07:56;26.80;;;19.07;;
5333;SDS011;2689;50.954;7.116;2024-03-06T04:10:23;29.53;;;20.43;;
5333;SDS011;2689;50.954;7.116;2024-03-06T04:12:50;26.10;;;19.50;;
5333;SDS011;2689;50.954;7.116;2024-03-06T04:15:16;31.43;;;21.57;;
5333;SDS011;2689;50.954;7.116;2024-03-06T04:17:44;29.40;;;20.30;;
5333;SDS011;2689;50.954;7.116;2024-03-06T04:20:10;27.40;;;18.90;;
5333;SDS011;2689;50.954;7.116;2024-03-06T04:22:39;26.27;;;19.20;;
5333;SDS011;2689;50.954;7.116;2024-03-06T04:25:06;26.20;;;18.90;;
5333;SDS011;2689;50.954;7.116;2024-03-06T04:27:34;33.30;;;19.83;;
5333;SDS011;2689;50.954;7.116;2024-03-06T04:30:01;24.13;;;17.70;;
5333;SDS011;2689;50.954;7.116;2024-03-06T04:32:29;24.30;;;19.27;;
5333;SDS011;2689;50.954;7.116;2024-03-06T04:34:56;22.67;;;17.10;;
5333;SDS011;2689;50.954;7.116;2024-03-06T04:37:22;24.03;;;18.33;;
5333;SDS011;2689;50.954;7.116;2024-03-06T04:39:53;25.10;;;17.50;;
5333;SDS011;2689;50.954;7.116;2024-03-06T04:42:19;26.30;;;18.37;;
5333;SDS011;2689;50.954;7.116;2024-03-06T04:44:46;24.37;;;16.90;;
5333;SDS011;2689;50.954;7.116;2024-03-06T04:47:13;21.43;;;16.77;;
5333;SDS011;2689;50.954;7.116;2024-03-06T04:49:40;21.97;;;17.07;;
5333;SDS011;2689;50.954;7.116;2024-03-06T04:52:07;21.30;;;16.87;;
5333;SDS011;2689;50.954;7.116;2024-03-06T04:54:34;22.70;;;16.90;;
5333;SDS011;2689;50.954;7.116;2024-03-06T04:57:03;22.50;;;16.40;;
5333;SDS011;2689;50.954;7.116;2024-03-06T04:59:30;22.43;;;16.87;;
5333;SDS011;2689;50.954;7.116;2024-03-06T05:01:57;20.73;;;16.17;;
5333;SDS011;2689;50.954;7.116;2024-03-06T05:04:23;24.10;;;17.70;;
5333;SDS011;2689;50.954;7.116;2024-03-06T05:06:50;23.23;;;17.33;;
5333;SDS011;2689;50.954;7.116;2024-03-06T05:09:17;22.23;;;16.43;;
5333;SDS011;2689;50.954;7.116;2024-03-06T05:11:44;23.30;;;17.13;;
5333;SDS011;2689;50.954;7.116;2024-03-06T05:14:12;21.90;;;16.40;;
5333;SDS011;2689;50.954;7.116;2024-03-06T05:16:38;22.47;;;16.60;;
5333;SDS011;2689;50.954;7.116;2024-03-06T05:19:05;22.67;;;15.80;;
5333;SDS011;2689;50.954;7.116;2024-03-06T05:21:32;25.17;;;15.97;;
5333;SDS011;2689;50.954;7.116;2024-03-06T05:24:00;26.80;;;17.20;;
5333;SDS011;2689;50.954;7.116;2024-03-06T05:26:27;23.53;;;16.77;;
5333;SDS011;2689;50.954;7.116;2024-03-06T05:28:54;21.33;;;16.07;;
5333;SDS011;2689;50.954;7.116;2024-03-06T05:31:22;20.23;;;15.40;;
5333;SDS011;2689;50.954;7.116;2024-03-06T05:33:50;26.13;;;18.07;;
5333;SDS011;2689;50.954;7.116;2024-03-06T05:36:16;23.80;;;16.17;;
5333;SDS011;2689;50.954;7.116;2024-03-06T05:38:44;23.40;;;17.53;;
5333;SDS011;2689;50.954;7.116;2024-03-06T05:41:11;22.63;;;15.70;;
5333;SDS011;2689;50.954;7.116;2024-03-06T05:43:37;18.83;;;14.97;;
5333;SDS011;2689;50.954;7.116;2024-03-06T05:46:06;23.87;;;16.73;;
5333;SDS011;2689;50.954;7.116;2024-03-06T05:48:34;20.37;;;15.97;;
5333;SDS011;2689;50.954;7.116;2024-03-06T05:51:00;22.57;;;16.00;;
5333;SDS011;2689;50.954;7.116;2024-03-06T05:53:28;24.63;;;16.33;;
5333;SDS011;2689;50.954;7.116;2024-03-06T05:55:55;21.20;;;16.97;;
5333;SDS011;2689;50.954;7.116;2024-03-06T05:58:21;19.50;;;14.97;;
5333;SDS011;2689;50.954;7.116;2024-03-06T06:00:48;20.83;;;15.03;;
5333;SDS011;2689;50.954;7.116;2024-03-06T06:03:15;22.03;;;15.73;;
5333;SDS011;2689;50.954;7.116;2024-03-06T06:05:43;20.70;;;15.53;;
5333;SDS011;2689;50.954;7.116;2024-03-06T06:08:10;20.20;;;15.07;;
5333;SDS011;2689;50.954;7.116;2024-03-06T06:10:37;23.73;;;16.27;;
5333;SDS011;2689;50.954;7.116;2024-03-06T06:13:04;21.13;;;14.70;;
5333;SDS011;2689;50.954;7.116;2024-03-06T06:15:31;21.83;;;15.53;;
5333;SDS011;2689;50.954;7.116;2024-03-06T06:17:57;19.87;;;14.47;;
5333;SDS011;2689;50.954;7.116;2024-03-06T06:20:24;18.03;;;13.43;;
5333;SDS011;2689;50.954;7.116;2024-03-06T06:22:53;19.40;;;13.87;;
5333;SDS011;2689;50.954;7.116;2024-03-06T06:25:19;19.30;;;14.37;;
5333;SDS011;2689;50.954;7.116;2024-03-06T06:27:46;19.47;;;14.17;;
5333;SDS011;2689;50.954;7.116;2024-03-06T06:30:14;20.00;;;14.73;;
5333;SDS011;2689;50.954;7.116;2024-03-06T06:32:41;18.93;;;14.73;;
5333;SDS011;2689;50.954;7.116;2024-03-06T06:35:08;19.37;;;14.30;;
5333;SDS011;2689;50.954;7.116;2024-03-06T06:37:36;18.43;;;13.67;;
5333;SDS011;2689;50.954;7.116;2024-03-06T06:40:06;20.60;;;15.13;;
5333;SDS011;2689;50.954;7.116;2024-03-06T06:42:35;23.50;;;15.17;;
5333;SDS011;2689;50.954;7.116;2024-03-06T06:45:02;20.70;;;15.63;;
5333;SDS011;2689;50.954;7.116;2024-03-06T06:47:31;22.03;;;13.43;;
5333;SDS011;2689;50.954;7.116;2024-03-06T06:49:58;19.07;;;14.73;;
5333;SDS011;2689;50.954;7.116;2024-03-06T06:52:25;19.70;;;13.10;;
5333;SDS011;2689;50.954;7.116;2024-03-06T06:54:52;18.97;;;14.63;;
5333;SDS011;2689;50.954;7.116;2024-03-06T06:57:20;19.10;;;13.97;;
5333;SDS011;2689;50.954;7.116;2024-03-06T06:59:47;18.47;;;13.67;;
5333;SDS011;2689;50.954;7.116;2024-03-06T07:02:14;16.97;;;13.50;;
5333;SDS011;2689;50.954;7.116;2024-03-06T07:04:42;20.57;;;13.37;;
5333;SDS011;2689;50.954;7.116;2024-03-06T07:07:09;18.97;;;13.77;;
5333;SDS011;2689;50.954;7.116;2024-03-06T07:09:36;18.70;;;15.07;;
5333;SDS011;2689;50.954;7.116;2024-03-06T07:12:03;18.17;;;13.70;;
5333;SDS011;2689;50.954;7.116;2024-03-06T07:14:31;19.50;;;14.80;;
5333;SDS011;2689;50.954;7.116;2024-03-06T07:16:58;18.43;;;14.07;;
5333;SDS011;2689;50.954;7.116;2024-03-06T07:19:25;16.87;;;13.20;;
5333;SDS011;2689;50.954;7.116;2024-03-06T07:21:51;18.63;;;13.53;;
5333;SDS011;2689;50.954;7.116;2024-03-06T07:24:18;20.00;;;13.50;;
5333;SDS011;2689;50.954;7.116;2024-03-06T07:26:45;19.07;;;13.50;;
5333;SDS011;2689;50.954;7.116;2024-03-06T07:29:12;16.27;;;13.37;;
5333;SDS011;2689;50.954;7.116;2024-03-06T07:31:41;19.67;;;14.60;;
5333;SDS011;2689;50.954;7.116;2024-03-06T07:34:08;19.20;;;13.73;;
5333;SDS011;2689;50.954;7.116;2024-03-06T07:36:35;16.20;;;13.10;;
5333;SDS011;2689;50.954;7.116;2024-03-06T07:39:02;18.43;;;14.23;;
5333;SDS011;2689;50.954;7.116;2024-03-06T07:41:30;16.70;;;14.03;;
5333;SDS011;2689;50.954;7.116;2024-03-06T07:43:57;17.50;;;13.77;;
5333;SDS011;2689;50.954;7.116;2024-03-06T07:46:24;17.73;;;13.27;;
5333;SDS011;2689;50.954;7.116;2024-03-06T07:48:52;16.30;;;12.80;;
5333;SDS011;2689;50.954;7.116;2024-03-06T07:51:20;22.60;;;12.23;;
5333;SDS011;2689;50.954;7.116;2024-03-06T07:53:46;16.30;;;12.70;;
5333;SDS011;2689;50.954;7.116;2024-03-06T07:56:15;17.30;;;14.20;;
5333;SDS011;2689;50.954;7.116;2024-03-06T07:58:43;25.47;;;17.47;;
5333;SDS011;2689;50.954;7.116;2024-03-06T08:01:10;17.60;;;13.40;;
5333;SDS011;2689;50.954;7.116;2024-03-06T08:03:38;18.13;;;13.67;;
5333;SDS011;2689;50.954;7.116;2024-03-06T08:06:07;13.93;;;11.83;;
5333;SDS011;2689;50.954;7.116;2024-03-06T08:08:34;14.40;;;11.50;;
5333;SDS011;2689;50.954;7.116;2024-03-06T08:11:01;13.37;;;11.33;;
5333;SDS011;2689;50.954;7.116;2024-03-06T08:13:28;18.00;;;13.60;;
5333;SDS011;2689;50.954;7.116;2024-03-06T08:15:54;12.40;;;10.70;;
5333;SDS011;2689;50.954;7.116;2024-03-06T08:18:22;16.20;;;12.17;;
5333;SDS011;2689;50.954;7.116;2024-03-06T08:20:48;12.03;;;10.73;;
5333;SDS011;2689;50.954;7.116;2024-03-06T08:23:17;13.60;;;11.63;;
5333;SDS011;2689;50.954;7.116;2024-03-06T08:25:43;15.83;;;12.50;;
5333;SDS011;2689;50.954;7.116;2024-03-06T08:28:10;15.33;;;12.27;;
5333;SDS011;2689;50.954;7.116;2024-03-06T08:30:37;11.87;;;10.67;;
5333;SDS011;2689;50.954;7.116;2024-03-06T08:33:04;11.90;;;10.70;;
5333;SDS011;2689;50.954;7.116;2024-03-06T08:35:31;12.70;;;10.50;;
5333;SDS011;2689;50.954;7.116;2024-03-06T08:37:57;13.63;;;9.33;;
5333;SDS011;2689;50.954;7.116;2024-03-06T08:40:26;11.50;;;9.60;;
5333;SDS011;2689;50.954;7.116;2024-03-06T08:42:53;12.57;;;9.30;;
5333;SDS011;2689;50.954;7.116;2024-03-06T08:45:20;9.90;;;8.43;;
5333;SDS011;2689;50.954;7.116;2024-03-06T08:47:48;13.50;;;9.43;;
5333;SDS011;2689;50.954;7.116;2024-03-06T08:50:15;12.37;;;9.30;;
5333;SDS011;2689;50.954;7.116;2024-03-06T08:52:42;12.10;;;9.00;;
5333;SDS011;2689;50.954;7.116;2024-03-06T08:55:09;22.90;;;13.30;;
5333;SDS011;2689;50.954;7.116;2024-03-06T08:57:37;18.80;;;13.30;;
5333;SDS011;2689;50.954;7.116;2024-03-06T09:00:05;18.80;;;14.10;;
5333;SDS011;2689;50.954;7.116;2024-03-06T09:02:35;12.63;;;10.17;;
5333;SDS011;2689;50.954;7.116;2024-03-06T09:05:05;18.40;;;11.20;;
5333;SDS011;2689;50.954;7.116;2024-03-06T09:07:35;17.97;;;13.87;;
5333;SDS011;2689;50.954;7.116;2024-03-06T09:10:03;22.10;;;15.30;;
5333;SDS011;2689;50.954;7.116;2024-03-06T09:12:31;20.27;;;15.13;;
5333;SDS011;2689;50.954;7.116;2024-03-06T09:15:01;21.90;;;14.43;;
5333;SDS011;2689;50.954;7.116;2024-03-06T09:17:28;25.17;;;16.67;;
5333;SDS011;2689;50.954;7.116;2024-03-06T09:19:55;19.23;;;14.60;;
5333;SDS011;2689;50.954;7.116;2024-03-06T09:22:22;21.17;;;15.83;;
5333;SDS011;2689;50.954;7.116;2024-03-06T09:24:49;25.17;;;18.73;;
5333;SDS011;2689;50.954;7.116;2024-03-06T09:27:18;28.13;;;19.00;;
5333;SDS011;2689;50.954;7.116;2024-03-06T09:29:45;26.33;;;17.97;;
5333;SDS011;2689;50.954;7.116;2024-03-06T09:32:16;25.90;;;18.50;;
5333;SDS011;2689;50.954;7.116;2024-03-06T09:34:55;24.30;;;18.20;;
5333;SDS011;2689;50.954;7.116;2024-03-06T09:37:22;25.40;;;18.50;;
5333;SDS011;2689;50.954;7.116;2024-03-06T09:39:49;29.30;;;20.33;;
5333;SDS011;2689;50.954;7.116;2024-03-06T09:42:16;25.93;;;19.27;;
5333;SDS011;2689;50.954;7.116;2024-03-06T09:44:44;25.87;;;21.07;;
5333;SDS011;2689;50.954;7.116;2024-03-06T09:47:14;27.23;;;20.00;;
5333;SDS011;2689;50.954;7.116;2024-03-06T09:49:46;23.40;;;18.30;;
5333;SDS011;2689;50.954;7.116;2024-03-06T09:52:13;27.90;;;20.13;;
5333;SDS011;2689;50.954;7.116;2024-03-06T09:54:40;22.97;;;17.50;;
5333;SDS011;2689;50.954;7.116;2024-03-06T09:57:09;28.40;;;20.10;;
5333;SDS011;2689;50.954;7.116;2024-03-06T09:59:38;26.10;;;18.30;;
5333;SDS011;2689;50.954;7.116;2024-03-06T10:02:10;29.33;;;18.67;;
5333;SDS011;2689;50.954;7.116;2024-03-06T10:05:01;28.37;;;20.00;;
5333;SDS011;2689;50.954;7.116;2024-03-06T10:07:29;27.33;;;20.43;;
5333;SDS011;2689;50.954;7.116;2024-03-06T10:09:58;28.33;;;21.17;;
5333;SDS011;2689;50.954;7.116;2024-03-06T10:12:24;29.33;;;20.93;;
5333;SDS011;2689;50.954;7.116;2024-03-06T10:14:55;31.53;;;22.30;;
5333;SDS011;2689;50.954;7.116;2024-03-06T10:17:24;28.63;;;20.67;;
5333;SDS011;2689;50.954;7.116;2024-03-06T10:19:52;28.90;;;21.70;;
5333;SDS011;2689;50.954;7.116;2024-03-06T10:22:19;28.00;;;19.47;;
5333;SDS011;2689;50.954;7.116;2024-03-06T10:24:49;26.13;;;18.93;;
5333;SDS011;2689;50.954;7.116;2024-03-06T10:27:17;31.47;;;22.17;;
5333;SDS011;2689;50.954;7.116;2024-03-06T10:29:43;35.90;;;21.40;;
5333;SDS011;2689;50.954;7.116;2024-03-06T10:32:16;28.67;;;21.33;;
5333;SDS011;2689;50.954;7.116;2024-03-06T10:34:47;29.57;;;20.93;;
5333;SDS011;2689;50.954;7.116;2024-03-06T10:37:14;33.30;;;23.23;;
5333;SDS011;2689;50.954;7.116;2024-03-06T10:39:42;28.20;;;19.47;;
5333;SDS011;2689;50.954;7.116;2024-03-06T10:42:10;27.87;;;20.80;;
5333;SDS011;2689;50.954;7.116;2024-03-06T10:44:43;27.47;;;19.90;;
5333;SDS011;2689;50.954;7.116;2024-03-06T10:47:18;28.07;;;20.43;;
5333;SDS011;2689;50.954;7.116;2024-03-06T10:49:47;26.07;;;20.20;;
5333;SDS011;2689;50.954;7.116;2024-03-06T10:52:18;25.63;;;19.27;;
5333;SDS011;2689;50.954;7.116;2024-03-06T10:54:46;26.60;;;19.40;;
5333;SDS011;2689;50.954;7.116;2024-03-06T10:57:15;28.30;;;19.07;;
5333;SDS011;2689;50.954;7.116;2024-03-06T10:59:43;25.53;;;19.40;;
5333;SDS011;2689;50.954;7.116;2024-03-06T11:02:12;26.67;;;19.30;;
5333;SDS011;2689;50.954;7.116;2024-03-06T11:04:39;23.40;;;17.90;;
5333;SDS011;2689;50.954;7.116;2024-03-06T11:07:10;27.10;;;19.60;;
5333;SDS011;2689;50.954;7.116;2024-03-06T11:09:37;26.57;;;18.80;;
5333;SDS011;2689;50.954;7.116;2024-03-06T11:12:05;26.23;;;20.17;;
5333;SDS011;2689;50.954;7.116;2024-03-06T11:14:33;25.23;;;18.70;;
5333;SDS011;2689;50.954;7.116;2024-03-06T11:17:06;24.90;;;17.67;;
5333;SDS011;2689;50.954;7.116;2024-03-06T11:25:55;18.30;;;14.20;;
5333;SDS011;2689;50.954;7.116;2024-03-06T11:28:32;15.77;;;13.33;;
5333;SDS011;2689;50.954;7.116;2024-03-06T11:31:00;14.67;;;13.10;;
5333;SDS011;2689;50.954;7.116;2024-03-06T11:33:34;17.50;;;13.60;;
5333;SDS011;2689;50.954;7.116;2024-03-06T11:36:14;17.70;;;13.80;;
5333;SDS011;2689;50.954;7.116;2024-03-06T11:38:55;15.83;;;14.13;;
5333;SDS011;2689;50.954;7.116;2024-03-06T11:41:25;17.80;;;14.37;;
5333;SDS011;2689;50.954;7.116;2024-03-06T11:44:15;14.83;;;13.13;;
5333;SDS011;2689;50.954;7.116;2024-03-06T11:46:46;17.83;;;14.13;;
5333;SDS011;2689;50.954;7.116;2024-03-06T11:49:15;15.83;;;13.57;;
5333;SDS011;2689;50.954;7.116;2024-03-06T11:51:50;16.37;;;13.47;;
5333;SDS011;2689;50.954;7.116;2024-03-06T11:54:24;15.40;;;13.13;;
5333;SDS011;2689;50.954;7.116;2024-03-06T11:56:53;15.57;;;13.80;;
5333;SDS011;2689;50.954;7.116;2024-03-06T11:59:26;17.93;;;13.67;;
5333;SDS011;2689;50.954;7.116;2024-03-06T12:01:57;15.43;;;13.30;;
5333;SDS011;2689;50.954;7.116;2024-03-06T12:04:35;17.13;;;12.47;;
5333;SDS011;2689;50.954;7.116;2024-03-06T12:07:06;15.37;;;13.70;;
5333;SDS011;2689;50.954;7.116;2024-03-06T12:09:36;18.50;;;14.23;;
5333;SDS011;2689;50.954;7.116;2024-03-06T12:12:04;16.83;;;13.63;;
5333;SDS011;2689;50.954;7.116;2024-03-06T12:14:34;18.93;;;12.90;;
5333;SDS011;2689;50.954;7.116;2024-03-06T12:17:10;16.30;;;12.30;;
5333;SDS011;2689;50.954;7.116;2024-03-06T12:19:39;14.40;;;11.33;;
5333;SDS011;2689;50.954;7.116;2024-03-06T12:22:10;12.63;;;11.00;;
5333;SDS011;2689;50.954;7.116;2024-03-06T12:24:38;10.20;;;8.77;;
5333;SDS011;2689;50.954;7.116;2024-03-06T12:27:08;12.70;;;10.33;;
5333;SDS011;2689;50.954;7.116;2024-03-06T12:30:44;10.53;;;8.77;;
5333;SDS011;2689;50.954;7.116;2024-03-06T12:32:56;9.13;;;7.43;;
5333;SDS011;2689;50.954;7.116;2024-03-06T12:35:26;12.20;;;9.60;;
5333;SDS011;2689;50.954;7.116;2024-03-06T12:37:55;10.90;;;6.60;;
5333;SDS011;2689;50.954;7.116;2024-03-06T12:40:23;29.97;;;24.93;;
5333;SDS011;2689;50.954;7.116;2024-03-06T12:42:50;7.90;;;6.63;;
5333;SDS011;2689;50.954;7.116;2024-03-06T12:45:18;7.53;;;6.00;;
5333;SDS011;2689;50.954;7.116;2024-03-06T12:47:46;8.17;;;5.83;;
5333;SDS011;2689;50.954;7.116;2024-03-06T12:50:14;6.03;;;4.37;;
5333;SDS011;2689;50.954;7.116;2024-03-06T12:52:41;5.80;;;4.73;;
5333;SDS011;2689;50.954;7.116;2024-03-06T12:55:11;7.30;;;5.83;;
5333;SDS011;2689;50.954;7.116;2024-03-06T12:57:40;8.13;;;5.13;;
5333;SDS011;2689;50.954;7.116;2024-03-06T13:00:10;6.70;;;4.30;;
5333;SDS011;2689;50.954;7.116;2024-03-06T13:02:40;4.57;;;3.60;;
5333;SDS011;2689;50.954;7.116;2024-03-06T13:05:09;8.53;;;4.83;;
5333;SDS011;2689;50.954;7.116;2024-03-06T13:07:36;7.07;;;4.30;;
5333;SDS011;2689;50.954;7.116;2024-03-06T13:10:03;5.23;;;4.30;;
5333;SDS011;2689;50.954;7.116;2024-03-06T13:12:30;6.80;;;5.50;;
5333;SDS011;2689;50.954;7.116;2024-03-06T13:14:58;6.87;;;4.40;;
5333;SDS011;2689;50.954;7.116;2024-03-06T13:17:26;7.73;;;5.07;;
5333;SDS011;2689;50.954;7.116;2024-03-06T13:19:55;6.17;;;4.67;;
5333;SDS011;2689;50.954;7.116;2024-03-06T13:22:23;5.23;;;4.33;;
5333;SDS011;2689;50.954;7.116;2024-03-06T13:24:56;6.23;;;4.43;;
5333;SDS011;2689;50.954;7.116;2024-03-06T13:27:26;5.03;;;4.00;;
5333;SDS011;2689;50.954;7.116;2024-03-06T13:29:53;6.40;;;4.27;;
5333;SDS011;2689;50.954;7.116;2024-03-06T13:32:23;5.53;;;4.47;;
5333;SDS011;2689;50.954;7.116;2024-03-06T13:34:50;6.10;;;5.17;;
5333;SDS011;2689;50.954;7.116;2024-03-06T13:37:21;5.80;;;5.00;;
5333;SDS011;2689;50.954;7.116;2024-03-06T13:39:49;7.17;;;5.23;;
5333;SDS011;2689;50.954;7.116;2024-03-06T13:42:17;6.23;;;3.93;;
5333;SDS011;2689;50.954;7.116;2024-03-06T13:44:45;6.13;;;4.33;;
5333;SDS011;2689;50.954;7.116;2024-03-06T13:47:14;4.17;;;3.50;;
5333;SDS011;2689;50.954;7.116;2024-03-06T13:49:45;6.23;;;4.30;;
5333;SDS011;2689;50.954;7.116;2024-03-06T13:52:12;4.53;;;3.80;;
5333;SDS011;2689;50.954;7.116;2024-03-06T13:54:41;5.07;;;4.10;;
5333;SDS011;2689;50.954;7.116;2024-03-06T13:57:09;5.27;;;4.13;;
5333;SDS011;2689;50.954;7.116;2024-03-06T13:59:36;5.67;;;4.37;;
5333;SDS011;2689;50.954;7.116;2024-03-06T14:02:08;6.27;;;4.20;;
5333;SDS011;2689;50.954;7.116;2024-03-06T14:04:56;5.00;;;3.90;;
5333;SDS011;2689;50.954;7.116;2024-03-06T14:07:24;7.77;;;4.20;;
5333;SDS011;2689;50.954;7.116;2024-03-06T14:09:52;5.60;;;4.63;;
5333;SDS011;2689;50.954;7.116;2024-03-06T14:12:42;4.30;;;3.80;;
5333;SDS011;2689;50.954;7.116;2024-03-06T14:15:17;5.83;;;4.60;;
5333;SDS011;2689;50.954;7.116;2024-03-06T14:17:47;5.10;;;4.00;;
5333;SDS011;2689;50.954;7.116;2024-03-06T14:20:18;5.70;;;4.20;;
5333;SDS011;2689;50.954;7.116;2024-03-06T14:22:47;5.27;;;4.00;;
5333;SDS011;2689;50.954;7.116;2024-03-06T14:25:17;5.00;;;4.40;;
5333;SDS011;2689;50.954;7.116;2024-03-06T14:37:20;4.93;;;4.00;;
5333;SDS011;2689;50.954;7.116;2024-03-06T14:38:31;5.00;;;4.33;;
5333;SDS011;2689;50.954;7.116;2024-03-06T14:41:01;5.20;;;3.87;;
5333;SDS011;2689;50.954;7.116;2024-03-06T14:43:34;5.27;;;3.57;;
5333;SDS011;2689;50.954;7.116;2024-03-06T14:46:03;6.60;;;4.57;;
5333;SDS011;2689;50.954;7.116;2024-03-06T14:48:32;5.90;;;4.77;;
5333;SDS011;2689;50.954;7.116;2024-03-06T14:51:00;5.07;;;4.20;;
5333;SDS011;2689;50.954;7.116;2024-03-06T14:53:29;6.43;;;3.97;;
5333;SDS011;2689;50.954;7.116;2024-03-06T14:55:58;6.70;;;4.13;;
5333;SDS011;2689;50.954;7.116;2024-03-06T14:58:26;5.80;;;3.90;;
5333;SDS011;2689;50.954;7.116;2024-03-06T15:00:55;5.53;;;3.80;;
5333;SDS011;2689;50.954;7.116;2024-03-06T15:03:25;5.70;;;3.60;;
5333;SDS011;2689;50.954;7.116;2024-03-06T15:05:52;3.93;;;3.50;;
5333;SDS011;2689;50.954;7.116;2024-03-06T15:08:19;5.70;;;2.90;;
5333;SDS011;2689;50.954;7.116;2024-03-06T15:10:48;4.00;;;3.30;;
5333;SDS011;2689;50.954;7.116;2024-03-06T15:13:21;6.30;;;3.13;;
5333;SDS011;2689;50.954;7.116;2024-03-06T15:15:50;5.17;;;3.50;;